createdAt,value
2022-10-17T08:53:17.187Z,22.80
2022-10-17T08:55:54.011Z,22.50
2022-10-17T12:46:04.875Z,22.20
2022-10-17T12:48:42.216Z,23.60
2022-10-17T12:51:36.308Z,23.60
2022-10-17T12:54:01.251Z,23.50
2022-10-17T12:56:46.922Z,23.60
2022-10-17T12:59:20.102Z,23.50
2022-10-17T13:01:52.409Z,23.60
2022-10-17T13:04:21.717Z,23.40
2022-10-17T13:06:59.199Z,23.60
2022-10-17T13:09:30.890Z,23.60
2022-10-17T13:12:03.065Z,23.50
2022-10-17T13:14:48.287Z,23.60
2022-10-17T13:17:10.824Z,23.60
2022-10-17T13:19:45.431Z,23.60
2022-10-17T13:22:23.005Z,23.60
2022-10-17T13:24:54.065Z,23.90
2022-10-17T13:27:31.481Z,24.60
2022-10-17T13:30:02.437Z,23.90
2022-10-17T13:32:40.809Z,23.70
2022-10-17T13:35:24.406Z,23.80
2022-10-17T13:37:56.928Z,23.70
2022-10-17T13:40:50.500Z,23.70
2022-10-17T13:43:24.342Z,23.80
2022-10-17T13:46:32.390Z,23.70
2022-10-17T13:48:39.514Z,23.70
2022-10-17T13:51:25.344Z,23.70
2022-10-17T13:53:58.074Z,23.70
2022-10-17T13:56:42.279Z,23.70
2022-10-17T13:59:22.988Z,23.70
2022-10-17T14:02:02.522Z,23.70
2022-10-17T14:07:37.560Z,24.70
2022-10-17T14:10:08.994Z,23.70
2022-10-17T14:12:55.729Z,23.80
2022-10-17T14:15:36.965Z,23.90
2022-10-17T14:18:30.874Z,23.80
2022-10-17T14:21:40.913Z,23.90
2022-10-17T14:27:43.966Z,24.20
2022-10-17T14:30:51.545Z,23.90
2022-10-17T14:33:08.881Z,23.90
2022-10-17T14:36:06.669Z,23.90
2022-10-17T14:39:18.228Z,23.90
2022-10-17T14:44:46.389Z,25.90
2022-10-17T14:47:43.235Z,23.70
2022-10-17T14:53:34.970Z,23.60
2022-10-17T14:56:14.414Z,23.70
2022-10-17T15:01:45.215Z,23.50
2022-10-17T15:04:24.154Z,20.20
2022-10-17T15:07:17.621Z,23.50
2022-10-17T15:09:54.881Z,23.50
2022-10-17T15:12:25.799Z,23.40
2022-10-17T15:15:13.363Z,23.90
2022-10-17T15:18:05.446Z,23.30
2022-10-17T15:20:35.987Z,23.40
2022-10-17T15:23:20.347Z,23.40
2022-10-17T15:26:20.723Z,23.40
2022-10-17T15:31:56.160Z,26.00
2022-10-17T15:34:28.186Z,23.40
2022-10-17T15:37:03.956Z,23.10
2022-10-17T15:39:29.857Z,21.80
2022-10-17T15:41:59.915Z,23.20
2022-10-17T15:44:29.031Z,23.00
2022-10-17T15:47:05.075Z,22.90
2022-10-17T15:49:40.439Z,23.40
2022-10-17T15:52:10.183Z,21.90
2022-10-17T15:54:38.915Z,21.90
2022-10-17T15:57:08.569Z,22.50
2022-10-17T15:59:39.978Z,22.40
2022-10-17T16:02:14.659Z,22.30
2022-10-17T16:04:44.306Z,22.50
2022-10-17T16:07:12.998Z,23.70
2022-10-17T16:09:41.872Z,22.20
2022-10-17T16:12:19.295Z,22.30
2022-10-17T16:14:49.997Z,22.20
2022-10-17T16:17:18.865Z,22.10
2022-10-17T16:19:47.634Z,22.00
2022-10-17T18:31:40.672Z,22.00
2022-10-17T18:34:08.468Z,19.80
2022-10-17T18:36:37.478Z,19.60
2022-10-17T18:39:05.640Z,19.60
2022-10-17T18:41:33.641Z,19.50
2022-10-17T18:44:03.121Z,19.50
2022-10-17T18:46:32.506Z,19.50
2022-10-17T18:49:00.321Z,19.50
2022-10-17T18:51:28.703Z,19.40
2022-10-17T18:53:58.656Z,19.40
2022-10-17T18:56:26.798Z,19.30
2022-10-17T18:58:55.027Z,19.30
2022-10-17T19:01:24.539Z,18.30
2022-10-17T19:03:53.779Z,19.30
2022-10-17T19:06:22.912Z,19.30
2022-10-17T19:08:50.728Z,19.20
2022-10-17T19:11:20.038Z,19.40
2022-10-17T19:13:48.408Z,19.10
2022-10-17T19:16:17.738Z,19.10
2022-10-17T19:18:47.078Z,19.10
2022-10-17T19:21:19.201Z,19.00
2022-10-17T19:23:45.791Z,19.10
2022-10-17T19:26:13.738Z,19.10
2022-10-17T19:28:44.877Z,19.00
2022-10-17T19:31:16.898Z,19.00
2022-10-17T19:33:42.131Z,19.00
2022-10-17T19:36:13.215Z,19.00
2022-10-17T19:38:40.970Z,18.90
2022-10-17T19:41:09.433Z,18.90
2022-10-17T19:43:37.578Z,18.90
2022-10-17T19:46:06.807Z,18.90
2022-10-17T19:48:36.727Z,18.80
2022-10-17T19:51:05.156Z,18.80
2022-10-17T19:53:33.302Z,18.90
2022-10-17T19:56:01.240Z,18.70
2022-10-17T19:58:29.174Z,18.70
2022-10-17T20:01:02.211Z,18.70
2022-10-17T20:03:29.971Z,18.70
2022-10-17T20:05:57.732Z,18.80
2022-10-17T20:10:54.279Z,18.80
2022-10-17T20:13:22.607Z,18.80
2022-10-17T20:16:16.564Z,18.80
2022-10-17T20:18:44.406Z,18.70
2022-10-17T20:21:14.024Z,18.70
2022-10-17T20:23:42.356Z,18.70
2022-10-17T20:26:38.000Z,18.60
2022-10-17T20:29:04.393Z,18.60
2022-10-17T20:31:32.173Z,18.60
